CYJT

Stephenville Airport

Stephenville, Canada
METAR CYJT 171000Z 28012KT 10SM -SHSN BKN020 OVC030 M05/M07 A3036 RMK SC6SC2 CVCTV CLD EMBD /S01/ SLP285
Observed Flight Rules
Jan-17 @ 10:00 UTC (an hour ago) Marginal Visual Flight Rules
Wind Visibility Clouds Conditions
280° at 12 knots 10 miles
  • Broken at 2,000' AGL
  • Overcast at 3,000' AGL
  • Light Snow
Temperatures Readings
Current -5°C / 23°F
Dewpoint -7°C / 19°F
Humidity 86%
Altimeter 30.36" Hg
Pressure 1028.5 hPa
Elevation 26
METAR CYJT 171000Z 28012KT 10SM -SHSN BKN020 OVC030 M05/M07 A3036 RMK SC6SC2 CVCTV CLD EMBD /S01/ SLP285
Observed Flight Rules
Jan-17 @ 10:00 UTC
(an hour ago)
MVFR
Wind Visibility
280° at 12 knots 10 miles
Clouds
  • Broken at 2,000' AGL
  • Overcast at 3,000' AGL
Conditions
  • Light Snow
Temperature Dewpoint
-5°C / 23°F -7°C / 19°F
Humidity Altimeter Pressure
86% 30.36" Hg 1028.5 hPa